createdAt,value
2023-09-06T00:00:30.977Z,102264.22
2023-09-06T00:03:37.960Z,102276.22
2023-09-06T00:06:41.805Z,102277.84
2023-09-06T00:09:45.718Z,102281.72
2023-09-06T00:12:49.622Z,102285.81
2023-09-06T00:15:53.490Z,102284.22
2023-09-06T00:19:01.154Z,102307.06
2023-09-06T00:22:05.605Z,102302.66
2023-09-06T00:25:10.367Z,102297.03
2023-09-06T00:28:14.720Z,102310.06
2023-09-06T00:31:19.341Z,102315.22
2023-09-06T00:34:25.736Z,102316.91
2023-09-06T00:37:36.610Z,102333.63
2023-09-06T00:40:41.810Z,102332.19
2023-09-06T00:43:45.637Z,102324.13
2023-09-06T00:46:49.842Z,102326.03
2023-09-06T00:49:55.039Z,102332.31
2023-09-06T00:52:58.974Z,102333.94
2023-09-06T00:56:03.957Z,102340.63
2023-09-06T00:59:11.870Z,102347.75
2023-09-06T01:02:15.699Z,102344.22
2023-09-06T01:05:21.448Z,102344.25
2023-09-06T01:08:29.926Z,102348.00
2023-09-06T01:11:40.080Z,102341.63
2023-09-06T01:14:43.796Z,102357.41
2023-09-06T01:17:48.619Z,102364.22
2023-09-06T01:20:55.325Z,102369.47
2023-09-06T01:24:03.657Z,102374.91
2023-09-06T01:27:08.021Z,102378.03
2023-09-06T01:30:12.966Z,102374.59
2023-09-06T01:33:17.638Z,102378.16
2023-09-06T01:36:21.728Z,102391.38
2023-09-06T01:39:27.366Z,102391.88
2023-09-06T01:42:31.066Z,102402.06
2023-09-06T01:45:36.708Z,102401.56
2023-09-06T01:48:40.799Z,102409.00
2023-09-06T01:51:44.725Z,102413.72
2023-09-06T01:54:49.819Z,102419.50
2023-09-06T01:57:53.684Z,102421.47
2023-09-06T02:00:58.866Z,102420.56
2023-09-06T02:04:06.322Z,102416.94
2023-09-06T02:07:10.121Z,102419.13
2023-09-06T02:10:15.327Z,102409.66
2023-09-06T02:13:19.213Z,102421.59
2023-09-06T02:16:23.883Z,102417.25
2023-09-06T02:19:27.707Z,102421.75
2023-09-06T02:22:31.372Z,102428.91
2023-09-06T02:25:36.536Z,102422.19
2023-09-06T02:28:40.259Z,102426.41
2023-09-06T02:31:46.089Z,102429.81
2023-09-06T02:34:49.935Z,102427.47
2023-09-06T02:37:53.721Z,102429.47
2023-09-06T02:40:58.911Z,102441.44
2023-09-06T02:44:02.638Z,102447.56
2023-09-06T02:47:10.799Z,102447.38
2023-09-06T02:50:14.605Z,102453.78
2023-09-06T02:53:21.503Z,102460.03
2023-09-06T02:56:27.326Z,102469.53
2023-09-06T02:59:31.144Z,102480.22
2023-09-06T03:02:35.237Z,102483.06
2023-09-06T03:05:43.098Z,102486.44
2023-09-06T03:08:52.412Z,102471.13
2023-09-06T03:11:58.005Z,102486.63
2023-09-06T03:15:01.771Z,102485.78
2023-09-06T03:18:06.843Z,102487.47
2023-09-06T03:21:10.740Z,102490.78
2023-09-06T03:24:14.658Z,102488.34
2023-09-06T03:27:21.686Z,102495.34
2023-09-06T03:30:25.872Z,102504.81
2023-09-06T03:33:30.805Z,102512.22
2023-09-06T03:36:36.494Z,102522.50
2023-09-06T03:39:42.668Z,102517.06
2023-09-06T03:42:48.921Z,102518.38
2023-09-06T03:45:53.338Z,102525.19
2023-09-06T03:48:57.354Z,102521.06
2023-09-06T03:52:01.330Z,102532.13
2023-09-06T03:55:06.530Z,102538.97
2023-09-06T03:58:12.272Z,102541.56
2023-09-06T04:01:17.400Z,102544.63
2023-09-06T04:04:23.881Z,102550.59
2023-09-06T04:07:27.721Z,102556.81
2023-09-06T04:10:37.571Z,102555.00
2023-09-06T04:13:44.794Z,102560.41
2023-09-06T04:16:51.240Z,102566.34
2023-09-06T04:19:57.602Z,102575.66
2023-09-06T04:23:01.634Z,102578.28
2023-09-06T04:26:06.624Z,102586.53
2023-09-06T04:29:12.289Z,102601.88
2023-09-06T04:32:18.644Z,102604.53
2023-09-06T04:35:23.536Z,102604.53
2023-09-06T04:38:27.880Z,102611.13
2023-09-06T04:41:37.962Z,102611.03
2023-09-06T04:44:46.021Z,102609.50
2023-09-06T04:47:50.515Z,102617.34
2023-09-06T04:50:56.622Z,102626.47
2023-09-06T04:54:01.548Z,102620.84
2023-09-06T04:57:12.250Z,102630.38
2023-09-06T05:00:19.157Z,102626.25
2023-09-06T05:03:23.694Z,102631.91
2023-09-06T05:06:31.544Z,102632.88
2023-09-06T05:09:35.847Z,102638.44
2023-09-06T05:12:41.155Z,102638.28
2023-09-06T05:15:47.543Z,102633.00
2023-09-06T05:18:51.457Z,102647.59
2023-09-06T05:21:59.867Z,102653.44
2023-09-06T05:25:03.773Z,102661.06
2023-09-06T05:28:09.546Z,102665.44
2023-09-06T05:31:16.281Z,102674.34
2023-09-06T05:34:20.558Z,102681.88
2023-09-06T05:37:25.913Z,102687.66
2023-09-06T05:40:31.905Z,102687.66
2023-09-06T05:43:35.700Z,102691.91
2023-09-06T05:46:42.116Z,102697.63
2023-09-06T05:49:52.475Z,102702.97
2023-09-06T05:52:56.678Z,102704.09
2023-09-06T05:56:01.211Z,102714.19
2023-09-06T05:59:06.876Z,102720.09
2023-09-06T06:02:12.255Z,102724.00
2023-09-06T06:05:16.476Z,102741.41
2023-09-06T06:08:20.403Z,102745.69
2023-09-06T06:11:26.996Z,102740.41
2023-09-06T06:14:32.068Z,102735.03
2023-09-06T06:17:37.622Z,102754.66
2023-09-06T06:20:44.943Z,102747.50
2023-09-06T06:23:49.237Z,102747.75
2023-09-06T06:26:53.030Z,102750.19
2023-09-06T06:29:56.834Z,102743.38
2023-09-06T06:33:02.202Z,102746.69
2023-09-06T06:36:06.254Z,102753.97
2023-09-06T06:39:11.600Z,102760.41
2023-09-06T06:42:15.383Z,102760.75
2023-09-06T06:45:23.991Z,102768.53
2023-09-06T06:48:29.440Z,102768.88
2023-09-06T06:51:36.925Z,102772.81
2023-09-06T06:54:43.074Z,102771.72
2023-09-06T06:57:48.837Z,102765.44
2023-09-06T07:00:52.637Z,102768.53
2023-09-06T07:03:58.046Z,102771.06
2023-09-06T07:07:01.932Z,102771.72
2023-09-06T07:10:07.564Z,102777.09
2023-09-06T07:13:11.326Z,102786.56
2023-09-06T07:16:17.378Z,102782.94
2023-09-06T07:19:22.843Z,102785.13
2023-09-06T07:22:26.846Z,102782.38
2023-09-06T07:25:30.547Z,102782.28
2023-09-06T07:28:40.331Z,102778.75
2023-09-06T07:31:44.140Z,102791.94
2023-09-06T07:34:49.339Z,102794.34
2023-09-06T07:37:53.101Z,102797.13
2023-09-06T07:41:00.530Z,102797.06
2023-09-06T07:44:04.453Z,102795.34
2023-09-06T07:47:08.488Z,102794.09
2023-09-06T07:50:13.990Z,102799.50
2023-09-06T07:53:17.853Z,102814.09
2023-09-06T07:56:21.704Z,102803.94
2023-09-06T07:59:25.651Z,102810.06
2023-09-06T08:02:29.482Z,102810.88
2023-09-06T08:05:36.439Z,102823.66
2023-09-06T08:08:40.326Z,102829.09
2023-09-06T08:11:44.141Z,102825.47
2023-09-06T08:14:48.241Z,102823.66
2023-09-06T08:17:52.643Z,102815.75
2023-09-06T08:20:58.075Z,102816.66
2023-09-06T08:24:03.628Z,102818.00
2023-09-06T08:27:07.580Z,102820.72
2023-09-06T08:30:13.082Z,102833.84
2023-09-06T08:33:18.286Z,102837.28
2023-09-06T08:36:23.658Z,102826.91
2023-09-06T08:39:27.516Z,102830.59
2023-09-06T08:42:34.459Z,102829.59
2023-09-06T08:45:39.382Z,102835.53
2023-09-06T08:48:44.280Z,102836.16
2023-09-06T08:51:50.133Z,102829.09
2023-09-06T08:56:29.808Z,102832.13
2023-09-06T08:59:36.046Z,102849.13
2023-09-06T09:02:41.743Z,102839.22
2023-09-06T09:05:45.631Z,102841.78
2023-09-06T09:08:49.602Z,102845.94
2023-09-06T09:11:55.361Z,102844.44
2023-09-06T09:15:10.257Z,102842.28
2023-09-06T09:18:22.002Z,102841.25
2023-09-06T09:21:25.759Z,102842.63
2023-09-06T09:24:31.177Z,102844.69
2023-09-06T09:27:38.178Z,102845.59
2023-09-06T09:30:42.312Z,102843.81
2023-09-06T09:33:47.103Z,102850.53
2023-09-06T09:36:52.344Z,102854.09
2023-09-06T09:39:56.266Z,102858.69
2023-09-06T09:43:03.487Z,102852.00
2023-09-06T09:46:07.869Z,102863.19
2023-09-06T09:49:12.693Z,102861.44
2023-09-06T09:52:18.383Z,102858.03
2023-09-06T09:55:25.599Z,102862.25
2023-09-06T09:58:33.168Z,102858.38
2023-09-06T10:01:36.944Z,102851.25
2023-09-06T10:04:43.883Z,102857.22
2023-09-06T10:07:49.934Z,102851.44
2023-09-06T10:10:54.239Z,102855.91
2023-09-06T10:14:01.222Z,102870.28
2023-09-06T10:17:06.194Z,102863.34
2023-09-06T10:20:14.120Z,102862.81
2023-09-06T10:23:20.134Z,102868.94
2023-09-06T10:26:28.204Z,102867.63
2023-09-06T10:29:33.759Z,102862.50
2023-09-06T10:32:44.431Z,102868.00
2023-09-06T10:35:48.362Z,102863.50
2023-09-06T10:39:15.896Z,102852.38
2023-09-06T10:42:22.876Z,102843.47
2023-09-06T10:45:28.118Z,102852.16
2023-09-06T10:48:32.062Z,102847.91
2023-09-06T10:51:35.888Z,102855.31
2023-09-06T10:54:41.920Z,102866.88
2023-09-06T10:57:54.051Z,102856.66
2023-09-06T11:01:17.578Z,102866.03
2023-09-06T11:04:27.650Z,102864.16
2023-09-06T11:07:48.717Z,102864.09
2023-09-06T11:10:55.155Z,102865.38
2023-09-06T11:14:07.969Z,102858.56
2023-09-06T11:17:25.739Z,102855.50
2023-09-06T11:20:29.818Z,102851.41
2023-09-06T11:23:45.529Z,102855.41
2023-09-06T11:26:49.302Z,102858.22
2023-09-06T11:30:00.441Z,102858.94
2023-09-06T11:33:09.149Z,102859.88
2023-09-06T11:36:14.683Z,102854.66
2023-09-06T11:39:20.600Z,102856.28
2023-09-06T11:42:26.048Z,102859.13
2023-09-06T11:45:32.585Z,102850.75
2023-09-06T11:48:38.684Z,102848.78
2023-09-06T11:51:43.118Z,102848.22
2023-09-06T11:54:51.213Z,102850.13
2023-09-06T11:57:58.734Z,102851.41
2023-09-06T12:01:06.721Z,102863.47
2023-09-06T12:04:17.098Z,102857.78
2023-09-06T12:07:24.719Z,102854.56
2023-09-06T12:10:30.071Z,102852.81
2023-09-06T12:13:36.337Z,102847.16
2023-09-06T12:16:40.876Z,102847.16
2023-09-06T12:19:46.465Z,102858.56
2023-09-06T12:22:50.368Z,102864.28
2023-09-06T12:25:54.090Z,102851.06
2023-09-06T12:28:58.688Z,102859.66
2023-09-06T12:32:02.424Z,102851.69
2023-09-06T12:35:09.169Z,102849.53
2023-09-06T12:38:12.866Z,102856.28
2023-09-06T12:41:16.714Z,102852.94
2023-09-06T12:44:23.021Z,102859.56
2023-09-06T12:47:27.007Z,102845.97
2023-09-06T12:50:32.256Z,102845.38
2023-09-06T12:53:36.212Z,102852.28
2023-09-06T12:56:40.261Z,102852.44
2023-09-06T12:59:44.084Z,102853.03
2023-09-06T13:02:48.057Z,102842.06
2023-09-06T13:05:53.378Z,102837.03
2023-09-06T13:08:57.608Z,102833.72
2023-09-06T13:12:02.039Z,102833.63
2023-09-06T13:15:06.714Z,102839.72
2023-09-06T13:18:10.643Z,102843.53
2023-09-06T13:21:16.110Z,102840.75
2023-09-06T13:24:20.696Z,102846.13
2023-09-06T13:27:24.420Z,102834.69
2023-09-06T13:30:28.238Z,102829.44
2023-09-06T13:33:32.804Z,102834.97
2023-09-06T13:36:40.046Z,102836.03
2023-09-06T13:39:44.167Z,102838.69
2023-09-06T13:42:48.031Z,102835.63
2023-09-06T13:45:51.906Z,102842.09
2023-09-06T13:48:55.732Z,102841.84
2023-09-06T13:52:00.956Z,102842.03
2023-09-06T13:55:06.599Z,102835.47
2023-09-06T13:58:11.788Z,102845.75
2023-09-06T14:01:16.745Z,102847.97
2023-09-06T14:04:21.023Z,102839.63
2023-09-06T14:07:26.296Z,102839.59
2023-09-06T14:10:29.965Z,102837.44
2023-09-06T14:13:34.034Z,102828.59
2023-09-06T14:16:37.882Z,102825.44
2023-09-06T14:19:41.661Z,102814.94
2023-09-06T14:22:46.831Z,102826.47
2023-09-06T14:25:51.540Z,102825.47
2023-09-06T14:28:56.785Z,102812.94
2023-09-06T14:32:00.716Z,102814.38
2023-09-06T14:35:06.180Z,102817.72
2023-09-06T14:38:11.347Z,102822.31
2023-09-06T14:41:15.516Z,102820.59
2023-09-06T14:44:19.733Z,102830.97
2023-09-06T14:47:23.741Z,102827.50
2023-09-06T14:50:27.784Z,102814.06
2023-09-06T14:53:34.229Z,102824.97
2023-09-06T14:56:38.731Z,102831.03
2023-09-06T14:59:43.224Z,102827.03
2023-09-06T15:02:47.688Z,102833.69
2023-09-06T15:05:52.110Z,102835.94
2023-09-06T15:08:57.725Z,102840.03
2023-09-06T15:12:03.464Z,102832.75
2023-09-06T15:15:08.734Z,102834.84
2023-09-06T15:18:12.989Z,102837.53
2023-09-06T15:21:17.012Z,102837.19
2023-09-06T15:24:22.167Z,102845.88
2023-09-06T15:27:26.021Z,102842.81
2023-09-06T15:30:29.864Z,102838.81
2023-09-06T15:33:34.895Z,102836.16
2023-09-06T15:36:38.661Z,102834.44
2023-09-06T15:39:44.565Z,102839.75
2023-09-06T15:42:48.274Z,102844.84
2023-09-06T15:45:52.410Z,102829.66
2023-09-06T15:48:56.258Z,102831.81
2023-09-06T15:51:59.991Z,102836.19
2023-09-06T15:55:07.188Z,102839.63
2023-09-06T15:58:11.117Z,102833.81
2023-09-06T16:01:14.897Z,102831.03
2023-09-06T16:04:18.932Z,102820.78
2023-09-06T16:07:24.949Z,102827.13
2023-09-06T16:10:30.191Z,102823.63
2023-09-06T16:13:34.047Z,102823.38
2023-09-06T16:16:38.159Z,102823.50
2023-09-06T16:19:41.940Z,102822.19
2023-09-06T16:22:45.788Z,102827.03
2023-09-06T16:25:50.976Z,102823.16
2023-09-06T16:28:54.803Z,102826.09
2023-09-06T16:31:59.075Z,102812.16
2023-09-06T16:35:08.879Z,102814.59
2023-09-06T16:38:13.442Z,102820.03
2023-09-06T16:41:18.538Z,102815.31
2023-09-06T16:44:23.655Z,102828.44
2023-09-06T16:47:27.532Z,102825.03
2023-09-06T16:50:31.317Z,102822.53
2023-09-06T16:53:35.136Z,102817.75
2023-09-06T16:56:40.266Z,102825.16
2023-09-06T16:59:44.952Z,102824.03
2023-09-06T17:02:48.890Z,102819.03
2023-09-06T17:05:52.712Z,102817.31
2023-09-06T17:08:56.608Z,102827.03
2023-09-06T17:12:01.818Z,102825.56
2023-09-06T17:15:15.042Z,102829.31
2023-09-06T17:18:18.793Z,102827.06
2023-09-06T17:21:23.695Z,102826.06
2023-09-06T17:24:27.719Z,102838.25
2023-09-06T17:27:33.465Z,102836.84
2023-09-06T17:30:39.235Z,102845.31
2023-09-06T17:33:42.959Z,102835.59
2023-09-06T17:36:47.047Z,102846.06
2023-09-06T17:39:50.807Z,102835.31
2023-09-06T17:42:55.931Z,102848.28
2023-09-06T17:46:00.769Z,102855.53
2023-09-06T17:49:10.328Z,102858.81
2023-09-06T17:52:17.448Z,102857.28
2023-09-06T17:55:21.982Z,102866.06
2023-09-06T17:58:27.166Z,102865.50
2023-09-06T18:01:31.156Z,102868.78
2023-09-06T18:04:35.345Z,102869.56
2023-09-06T18:07:39.230Z,102873.31
2023-09-06T18:10:42.895Z,102867.31
2023-09-06T18:13:49.027Z,102873.34
2023-09-06T18:16:56.588Z,102878.91
2023-09-06T18:20:00.485Z,102873.06
2023-09-06T18:23:04.729Z,102883.53
2023-09-06T18:26:09.653Z,102885.44
2023-09-06T18:29:14.841Z,102876.00
2023-09-06T18:32:18.646Z,102880.38
2023-09-06T18:35:22.631Z,102884.69
2023-09-06T18:38:28.151Z,102882.19
2023-09-06T18:41:32.513Z,102890.09
2023-09-06T18:44:37.667Z,102893.72
2023-09-06T18:47:43.320Z,102896.38
2023-09-06T18:50:47.956Z,102905.13
2023-09-06T18:53:53.245Z,102905.19
2023-09-06T18:56:57.056Z,102924.38
2023-09-06T19:00:02.146Z,102923.50
2023-09-06T19:03:07.225Z,102914.03
2023-09-06T19:06:11.224Z,102915.72
2023-09-06T19:09:16.919Z,102918.31
2023-09-06T19:12:20.871Z,102919.34
2023-09-06T19:15:26.088Z,102919.56
2023-09-06T19:18:30.261Z,102912.69
2023-09-06T19:21:34.749Z,102914.19
2023-09-06T19:24:38.473Z,102921.25
2023-09-06T19:27:42.750Z,102915.31
2023-09-06T19:30:49.205Z,102910.94
2023-09-06T19:33:53.263Z,102911.84
2023-09-06T19:36:57.097Z,102912.75
2023-09-06T19:40:02.326Z,102911.91
2023-09-06T19:43:06.424Z,102917.88
2023-09-06T19:46:11.870Z,102916.22
2023-09-06T19:49:15.800Z,102918.13
2023-09-06T19:52:19.626Z,102918.94
2023-09-06T19:55:23.375Z,102923.41
2023-09-06T19:58:27.416Z,102921.84
2023-09-06T20:01:32.834Z,102917.53
2023-09-06T20:04:37.275Z,102919.16
2023-09-06T20:07:41.201Z,102915.88
2023-09-06T20:10:48.257Z,102917.50
2023-09-06T20:13:52.918Z,102925.25
2023-09-06T20:16:58.428Z,102916.78
2023-09-06T20:20:02.109Z,102921.09
2023-09-06T20:23:06.398Z,102920.19
2023-09-06T20:26:10.206Z,102921.13
2023-09-06T20:29:13.973Z,102932.31
2023-09-06T20:32:19.056Z,102925.38
2023-09-06T20:35:22.973Z,102931.34
2023-09-06T20:38:26.857Z,102934.84
2023-09-06T20:41:30.638Z,102929.78
2023-09-06T20:44:34.610Z,102939.50
2023-09-06T20:47:39.815Z,102943.69
2023-09-06T20:50:43.730Z,102947.22
2023-09-06T20:53:47.939Z,102944.63
2023-09-06T20:56:52.298Z,102944.66
2023-09-06T20:59:56.171Z,102940.47
2023-09-06T21:03:01.556Z,102939.66
2023-09-06T21:06:05.438Z,102941.41
2023-09-06T21:09:11.779Z,102939.75
2023-09-06T21:12:15.789Z,102952.56
2023-09-06T21:15:19.910Z,102951.78
2023-09-06T21:18:25.940Z,102960.28
2023-09-06T21:21:29.911Z,102961.16
2023-09-06T21:24:33.919Z,102967.38
2023-09-06T21:27:39.916Z,102969.09
2023-09-06T21:30:46.883Z,102966.50
2023-09-06T21:33:52.265Z,102975.94
2023-09-06T21:36:56.390Z,102972.47
2023-09-06T21:40:00.715Z,102969.97
2023-09-06T21:43:17.050Z,102973.50
2023-09-06T21:46:22.251Z,102982.97
2023-09-06T21:49:27.721Z,102989.03
2023-09-06T21:52:31.492Z,102988.03
2023-09-06T21:55:35.480Z,102991.41
2023-09-06T21:58:39.386Z,102985.56
2023-09-06T22:01:55.488Z,102987.28
2023-09-06T22:05:19.434Z,102989.09
2023-09-06T22:08:41.584Z,102987.38
2023-09-06T22:12:03.717Z,102988.22
2023-09-06T22:15:11.548Z,102985.75
2023-09-06T22:18:15.383Z,102988.31
2023-09-06T22:21:20.531Z,102990.81
2023-09-06T22:24:24.319Z,102994.19
2023-09-06T22:27:28.491Z,103000.16
2023-09-06T22:30:33.745Z,102994.22
2023-09-06T22:33:37.515Z,102989.09
2023-09-06T22:36:42.620Z,102983.16
2023-09-06T22:39:46.405Z,102984.88
2023-09-06T22:42:50.212Z,102989.97
2023-09-06T22:45:54.043Z,102997.66
2023-09-06T22:48:58.125Z,102995.94
2023-09-06T22:52:04.113Z,102990.88
2023-09-06T22:55:11.107Z,102986.69
2023-09-06T22:58:15.384Z,102997.81
2023-09-06T23:01:19.250Z,103001.22
2023-09-06T23:04:23.182Z,102997.84
2023-09-06T23:07:29.317Z,103017.53
2023-09-06T23:10:34.541Z,103019.28
2023-09-06T23:13:38.340Z,103013.25
2023-09-06T23:16:42.888Z,103020.25
2023-09-06T23:19:49.737Z,103012.59
2023-09-06T23:22:58.844Z,103027.22
2023-09-06T23:26:07.485Z,103022.75
2023-09-06T23:29:13.592Z,103023.66
2023-09-06T23:32:20.782Z,103024.50
2023-09-06T23:35:26.228Z,103028.00
2023-09-06T23:38:31.900Z,103022.78
2023-09-06T23:41:37.766Z,103027.09
2023-09-06T23:44:45.913Z,103020.31
2023-09-06T23:47:53.866Z,103018.69
2023-09-06T23:50:58.339Z,103023.00
2023-09-06T23:54:04.301Z,103034.88
2023-09-06T23:57:08.105Z,103027.22
